Townsend, MA (01469)

11:04 AM EST on February 07, 2016 (GMT -0500)
Timberlee Park | | Change Station
CLOSE
Current Station
Personal Weather Station
Location: Townsend, MA
Elevation: 279 ft
Nearby Weather Stations

Elev 279 ft 42.64 °N, 71.68 °W | Updated 2 minutes ago

Mostly Cloudy
Mostly Cloudy
37.1 °F
Feels Like 37 °F
N
0.0
Wind Variable Wind from East
Gusts 5.0 mph

Today
High -- | Low -- °F
--% Chance of Precip.
Yesterday
High -- | Low -- °F
Precip. -- in
Pressure 30.17 in
Visibility 10.0 miles
Clouds Clear
Windchill 37 °F
Dew Point 31 °F
Humidity 79%
Rainfall 0.00 in
Snow Depth Not available.
6:54 AM 5:07 PM
Waning Crescent, 1% visible
METAR KFIT 071552Z AUTO VRB05KT 10SM CLR 05/M07 A3016 RMK AO2 SLP217 T00501067
Pressure 30.17 in
Visibility 10.0 miles
Clouds Clear
Windchill 37 °F
Dew Point 31 °F
Humidity 79%
Rainfall 0.00 in
Snow Depth Not available.
6:54 AM 5:07 PM
Waning Crescent, 1% visible
METAR KFIT 071552Z AUTO VRB05KT 10SM CLR 05/M07 A3016 RMK AO2 SLP217 T00501067

10-Day Weather Forecast

Almanac

Astronomy

Feb. 07, 2016 Rise Set
Actual Time
Civil Twilight
Nautical Twilight
Astronomical Twilight
Moon
Length of Visible Light
Length of Day
Tomorrow will be .
, % of the Moon is Illuminated

Today's Extremes

State Highs State Lows

Community

WunderPhotos

Upload Photos

1,891,218 photos uploaded!

WunderBlog® & News

Nearby

Air Quality

  Air Quality AQ Index Pollutant
Not available.

Snow Depth

Station Depth Elevation

Earthquake Activity

City Distance Mag. Time & Date
Minimum magnitude displayed is 2.5.

Coastal Water Temperatures

Place Temperature

Stations

Nearby Weather Stations

Station Location Temp. Windchill Dew Point Humidity Wind Precip. Elev Updated Type
                   

Watches & Warnings

There are currently no watches in effect.